Aérodrome :
LOGIN :

S'inscrire | Disclaimer

   EN    FR    IT 

 










Légende :    VFR   VFR Marginal   IFR   IFR Intensif   IFR Très Intensif
Visi : 
Plafond : 
>= 8 km
>= 3000ft
5 à 8 km
1000 à 3000 ft
1500m à 5 km
500 à 1000 ft
800 à 1500m
200 à 500 ft
< 800m
< 200 ft
Symboles :   Orages  Brouillard  Fortes neiges  Fortes précipitations  Vent > 20 kt
SIGMETs :   Divers  Orages  Givrage  Turbulence  Onde Orograph.  Cendres Volcan.






- Altitude de l'aérodrome : 436 ft
- Code IATA : BTS


LZIB - Bratislava

DERNIER METAR :
  • 200630Z 27006KT 9999 FEW009 SCT082 02/00 Q1042 NOSIG

METARs EXPIRÉS :
  • 200600Z 28006KT 9999 FEW009 BKN085 02/00 Q1041 NOSIG
  • 200530Z 29005KT 9999 FEW006 SCT042 BKN071 02/00 Q1041 NOSIG
  • 200500Z 29004KT 9999 FEW006 BKN039 BKN070 02/01 Q1041 NOSIG
  • 200430Z 30007KT 9999 FEW005 BKN037 BKN055 02/01 Q1040 R13/290195
  • 200400Z 30006KT 9999 FEW005 BKN035 BKN053 02/00 Q1040 R13/290195

TAF TAF LZIB
Valide du 20 à 06h jusqu'au 21 à 06h UTC


200500Z 2006/2106 32008KT 9999 SCT035 BKN050
BECMG 2012/2014 SCT030
BECMG 2020/2022 VRB02KT 2500 BCFG BR SCT001
TEMPO 2022/2103 0600 FZFG BKN001
BECMG 2102/2104 0150 FZFG VV001



MET'MAP, la Météo Aéronautique d'un coup d'oeil ! - Copyright ORBIFLY Décembre 2007 - Disclaimer

ORBIFLY MET'MAP TEAM :

Programmation & Développement : Alexandra Zaïnal
Sur une idée originale de : Baudouin d'Aumeries
Assistance à la programmation : Marc-Olivier Méhu
Soutien technique & logistique : Manuel Goepfert

Contact : metmap@orbifly.com




SOURCES & CREDITS :

   NOAA